Terminal Aerodrome Forecast
Issued by NWS

Home | Current Version | Previous Version | Graphics & Text | Print | Product List | Glossary On
Versions: 1 2 3 4 5 6 7 8 9 10 11 12 13 14 15 16 17 18 19 20 21 22 23
000
FTUS43 KLOT 301124
TAFGYY
TAF
KGYY 301124Z 3012/0112 03012G20KT P6SM VCSH OVC011
     FM301600 05015G23KT P6SM VCSH SCT010 BKN020
     FM302100 05014G21KT 6SM -SHRA SCT009 OVC015
     FM010100 03009KT 3SM -SHRA OVC009
     FM010600 03009KT 5SM BR BKN006 BKN012=

USA.gov is the U.S. government's official web portal to all federal, state and local government web resources and services.